createdAt,value
2022-10-16T00:01:21.936Z,96730.38
2022-10-16T00:03:49.395Z,96733.03
2022-10-16T00:06:18.486Z,96727.72
2022-10-16T00:08:45.766Z,96742.06
2022-10-16T00:11:21.463Z,96735.53
2022-10-16T00:13:49.828Z,96735.16
2022-10-16T00:16:17.839Z,96743.22
2022-10-16T00:18:44.481Z,96731.53
2022-10-16T00:21:20.120Z,96720.69
2022-10-16T00:23:47.067Z,96728.63
2022-10-16T00:26:16.126Z,96727.78
2022-10-16T00:28:42.842Z,96731.69
2022-10-16T00:31:12.280Z,96735.72
2022-10-16T00:33:40.813Z,96728.63
2022-10-16T00:36:09.246Z,96735.72
2022-10-16T00:38:36.013Z,96735.84
2022-10-16T00:41:02.589Z,96744.63
2022-10-16T00:43:38.972Z,96746.31
2022-10-16T00:46:36.493Z,96746.19
2022-10-16T00:49:12.688Z,96764.00
2022-10-16T00:51:48.604Z,96746.91
2022-10-16T00:54:22.752Z,96754.25
2022-10-16T00:56:50.611Z,96763.16
2022-10-16T00:59:21.013Z,96760.53
2022-10-16T01:01:47.728Z,96762.59
2022-10-16T01:04:14.353Z,96754.66
2022-10-16T01:06:59.125Z,96752.00
2022-10-16T01:09:52.443Z,96753.22
2022-10-16T01:12:38.440Z,96745.56
2022-10-16T01:15:32.070Z,96746.75
2022-10-16T01:18:06.381Z,96764.31
2022-10-16T01:21:06.833Z,96756.84
2022-10-16T01:24:04.355Z,96757.41
2022-10-16T01:26:33.936Z,96754.06
2022-10-16T01:29:17.874Z,96766.47
2022-10-16T01:31:51.311Z,96766.72
2022-10-16T01:34:24.122Z,96766.88
2022-10-16T01:37:03.461Z,96763.09
2022-10-16T01:39:34.505Z,96765.88
2022-10-16T01:42:20.229Z,96753.50
2022-10-16T01:44:48.250Z,96761.16
2022-10-16T01:47:16.776Z,96774.13
2022-10-16T01:49:44.826Z,96760.78
2022-10-16T01:52:16.859Z,96759.69
2022-10-16T01:54:46.853Z,96773.50
2022-10-16T01:57:15.266Z,96766.53
2022-10-16T01:59:47.045Z,96767.81
2022-10-16T02:02:14.331Z,96769.50
2022-10-16T02:04:50.611Z,96776.75
2022-10-16T02:07:17.630Z,96775.75
2022-10-16T02:09:44.579Z,96770.84
2022-10-16T02:12:23.422Z,96792.50
2022-10-16T02:14:50.385Z,96805.47
2022-10-16T02:17:18.578Z,96810.38
2022-10-16T02:19:48.771Z,96798.81
2022-10-16T02:22:28.768Z,96800.31
2022-10-16T02:25:14.162Z,96804.63
2022-10-16T02:27:54.678Z,96790.22
2022-10-16T02:30:49.083Z,96799.88
2022-10-16T02:33:17.150Z,96790.63
2022-10-16T02:35:47.319Z,96775.25
2022-10-16T02:38:16.123Z,96779.97
2022-10-16T02:40:43.667Z,96783.31
2022-10-16T02:43:10.885Z,96783.81
2022-10-16T02:45:37.734Z,96779.25
2022-10-16T02:48:04.523Z,96794.41
2022-10-16T02:50:31.089Z,96804.16
2022-10-16T02:52:57.651Z,96807.63
2022-10-16T02:55:24.290Z,96755.69
2022-10-16T02:57:50.865Z,96768.72
2022-10-16T03:00:18.759Z,96762.38
2022-10-16T03:02:45.494Z,96741.84
2022-10-16T03:05:12.367Z,96749.34
2022-10-16T03:07:39.009Z,96756.56
2022-10-16T03:10:06.156Z,96755.38
2022-10-16T03:12:32.850Z,96760.06
2022-10-16T03:14:59.425Z,96759.22
2022-10-16T03:17:26.729Z,96761.16
2022-10-16T03:19:53.635Z,96762.84
2022-10-16T03:22:20.386Z,96773.56
2022-10-16T03:24:47.008Z,96786.38
2022-10-16T03:27:13.614Z,96789.91
2022-10-16T03:29:40.176Z,96794.31
2022-10-16T03:32:06.813Z,96806.47
2022-10-16T03:34:33.419Z,96803.22
2022-10-16T03:36:59.994Z,96800.97
2022-10-16T03:39:26.570Z,96795.28
2022-10-16T03:41:53.138Z,96803.84
2022-10-16T03:44:19.705Z,96801.31
2022-10-16T03:46:46.311Z,96794.22
2022-10-16T03:49:12.962Z,96802.16
2022-10-16T03:51:39.635Z,96803.00
2022-10-16T03:54:06.262Z,96800.56
2022-10-16T03:56:32.861Z,96799.47
2022-10-16T03:58:59.417Z,96802.13
2022-10-16T04:01:26.158Z,96794.75
2022-10-16T04:03:52.778Z,96787.56
2022-10-16T04:06:19.525Z,96802.47
2022-10-16T04:08:46.398Z,96804.84
2022-10-16T04:11:13.023Z,96800.53
2022-10-16T04:13:39.628Z,96804.13
2022-10-16T04:16:06.385Z,96808.72
2022-10-16T04:18:32.955Z,96816.53
2022-10-16T04:21:08.613Z,96828.41
2022-10-16T04:23:35.180Z,96816.88
2022-10-16T04:26:02.126Z,96825.38
2022-10-16T04:28:29.160Z,96833.91
2022-10-16T04:30:56.062Z,96826.94
2022-10-16T04:33:22.706Z,96835.84
2022-10-16T04:35:49.301Z,96846.28
2022-10-16T04:38:15.921Z,96835.34
2022-10-16T04:40:43.836Z,96843.72
2022-10-16T04:43:10.521Z,96851.44
2022-10-16T04:45:37.093Z,96840.38
2022-10-16T04:48:03.817Z,96841.34
2022-10-16T04:50:30.415Z,96838.69
2022-10-16T04:53:06.611Z,96837.84
2022-10-16T04:55:33.399Z,96834.50
2022-10-16T04:58:00.033Z,96838.81
2022-10-16T05:00:26.716Z,96834.75
2022-10-16T05:02:53.802Z,96839.19
2022-10-16T05:05:20.611Z,96838.50
2022-10-16T05:07:48.765Z,96849.69
2022-10-16T05:10:15.399Z,96854.84
2022-10-16T05:12:42.040Z,96845.81
2022-10-16T05:15:09.221Z,96850.00
2022-10-16T05:17:36.704Z,96858.66
2022-10-16T05:20:05.165Z,96857.69
2022-10-16T05:22:31.747Z,96855.63
2022-10-16T05:24:58.323Z,96845.88
2022-10-16T05:27:25.115Z,96840.44
2022-10-16T05:29:51.933Z,96846.16
2022-10-16T05:32:19.535Z,96848.78
2022-10-16T05:34:46.567Z,96850.59
2022-10-16T05:37:13.553Z,96858.41
2022-10-16T05:39:40.290Z,96863.00
2022-10-16T05:42:07.122Z,96862.16
2022-10-16T05:47:05.461Z,96876.66
2022-10-16T05:49:32.050Z,96873.66
2022-10-16T05:51:58.645Z,96873.25
2022-10-16T05:54:25.190Z,96863.41
2022-10-16T05:56:51.778Z,96860.28
2022-10-16T05:59:18.394Z,96866.44
2022-10-16T06:01:44.993Z,96873.41
2022-10-16T06:06:43.340Z,96880.63
2022-10-16T06:09:10.311Z,96883.16
2022-10-16T06:11:37.327Z,96875.91
2022-10-16T06:14:07.648Z,96875.78
2022-10-16T06:16:38.073Z,96874.56
2022-10-16T06:19:07.492Z,96883.84
2022-10-16T06:21:34.315Z,96894.91
2022-10-16T06:24:00.966Z,96892.00
2022-10-16T06:26:30.439Z,96883.94
2022-10-16T06:28:59.308Z,96894.66
2022-10-16T06:31:31.645Z,96899.13
2022-10-16T06:33:58.823Z,96895.38
2022-10-16T06:36:26.234Z,96903.31
2022-10-16T06:38:53.051Z,96914.50
2022-10-16T06:41:21.984Z,96918.69
2022-10-16T06:43:49.449Z,96922.94
2022-10-16T06:46:18.503Z,96928.84
2022-10-16T06:48:45.466Z,96932.19
2022-10-16T06:51:20.018Z,96939.63
2022-10-16T06:54:02.854Z,96937.81
2022-10-16T06:56:32.034Z,96953.59
2022-10-16T06:58:59.393Z,96956.94
2022-10-16T07:01:26.141Z,96964.88
2022-10-16T07:03:53.862Z,96960.91
2022-10-16T07:06:23.191Z,96968.34
2022-10-16T07:08:49.989Z,96973.03
2022-10-16T07:11:19.716Z,96982.16
2022-10-16T07:13:50.970Z,96990.00
2022-10-16T07:16:24.673Z,96983.97
2022-10-16T07:18:55.197Z,96986.63
2022-10-16T07:21:23.676Z,96985.41
2022-10-16T07:24:02.152Z,96986.84
2022-10-16T07:26:31.917Z,97001.44
2022-10-16T07:28:58.655Z,96996.66
2022-10-16T07:31:26.132Z,97000.72
2022-10-16T07:33:52.873Z,97003.44
2022-10-16T07:36:21.101Z,97013.06
2022-10-16T07:38:48.060Z,97019.22
2022-10-16T07:41:16.739Z,97021.94
2022-10-16T07:43:48.345Z,97023.25
2022-10-16T07:46:15.613Z,97030.63
2022-10-16T07:48:42.209Z,97029.44
2022-10-16T07:51:10.144Z,97045.69
2022-10-16T07:53:36.693Z,97056.31
2022-10-16T07:56:06.906Z,97044.78
2022-10-16T07:58:35.338Z,97034.53
2022-10-16T08:01:05.885Z,97039.91
2022-10-16T08:03:33.047Z,97051.34
2022-10-16T08:06:00.898Z,97059.22
2022-10-16T08:08:28.276Z,97060.66
2022-10-16T08:10:55.005Z,97057.41
2022-10-16T08:13:21.845Z,97060.66
2022-10-16T08:15:48.803Z,97054.19
2022-10-16T08:18:16.627Z,97049.66
2022-10-16T08:20:44.269Z,97061.22
2022-10-16T08:23:12.805Z,97061.44
2022-10-16T08:25:39.897Z,97071.69
2022-10-16T08:28:07.936Z,97062.91
2022-10-16T08:30:35.313Z,97075.94
2022-10-16T08:33:02.598Z,97082.09
2022-10-16T08:35:29.217Z,97085.66
2022-10-16T08:37:56.033Z,97085.97
2022-10-16T08:40:32.063Z,97091.41
2022-10-16T08:43:22.124Z,97096.25
2022-10-16T08:46:16.580Z,97095.66
2022-10-16T08:48:43.101Z,97099.69
2022-10-16T08:51:14.775Z,97094.63
2022-10-16T08:53:51.523Z,97094.50
2022-10-16T08:56:19.000Z,97102.34
2022-10-16T09:01:23.890Z,97095.78
2022-10-16T09:03:53.885Z,97106.91
2022-10-16T09:06:23.197Z,97099.84
2022-10-16T09:09:14.442Z,97107.94
2022-10-16T09:12:06.157Z,97114.66
2022-10-16T09:14:48.829Z,97116.72
2022-10-16T09:17:15.342Z,97123.63
2022-10-16T09:19:50.634Z,97133.47
2022-10-16T09:22:19.161Z,97134.63
2022-10-16T09:24:46.419Z,97129.22
2022-10-16T09:27:15.580Z,97138.31
2022-10-16T09:29:42.188Z,97132.69
2022-10-16T09:32:14.849Z,97138.97
2022-10-16T09:34:58.053Z,97136.16
2022-10-16T09:37:26.181Z,97142.75
2022-10-16T09:39:54.684Z,97144.16
2022-10-16T09:42:25.337Z,97140.41
2022-10-16T09:44:54.499Z,97140.81
2022-10-16T09:47:24.643Z,97145.31
2022-10-16T09:50:06.877Z,97148.13
2022-10-16T09:52:34.320Z,97147.66
2022-10-16T09:55:03.893Z,97145.16
2022-10-16T09:57:31.707Z,97148.34
2022-10-16T09:59:59.599Z,97148.50
2022-10-16T10:02:32.877Z,97137.13
2022-10-16T10:04:59.465Z,97146.00
2022-10-16T10:07:35.402Z,97140.09
2022-10-16T10:10:05.267Z,97145.31
2022-10-16T10:12:34.141Z,97135.34
2022-10-16T10:15:08.379Z,97138.38
2022-10-16T10:17:35.401Z,97137.88
2022-10-16T10:20:22.555Z,97140.81
2022-10-16T10:22:49.229Z,97141.66
2022-10-16T10:25:30.700Z,97143.34
2022-10-16T10:28:12.438Z,97139.38
2022-10-16T10:30:50.877Z,97137.19
2022-10-16T10:33:39.761Z,97129.47
2022-10-16T10:36:28.704Z,97124.97
2022-10-16T10:39:37.161Z,97125.78
2022-10-16T10:42:18.933Z,97126.06
2022-10-16T10:44:55.307Z,97128.88
2022-10-16T10:47:43.438Z,97132.63
2022-10-16T10:50:47.101Z,97137.25
2022-10-16T10:53:33.053Z,97124.59
2022-10-16T10:56:09.154Z,97127.41
2022-10-16T10:59:00.626Z,97125.19
2022-10-16T11:01:37.065Z,97125.75
2022-10-16T11:04:22.022Z,97124.59
2022-10-16T11:07:04.988Z,97127.31
2022-10-16T11:09:49.429Z,97133.69
2022-10-16T11:12:22.795Z,97132.88
2022-10-16T11:15:08.089Z,97140.16
2022-10-16T11:18:08.913Z,97149.81
2022-10-16T11:20:46.425Z,97159.31
2022-10-16T11:23:22.960Z,97158.88
2022-10-16T11:25:50.126Z,97161.38
2022-10-16T11:29:00.138Z,97161.63
2022-10-16T11:31:39.072Z,97153.44
2022-10-16T11:34:35.518Z,97147.44
2022-10-16T11:37:20.265Z,97138.22
2022-10-16T11:39:48.335Z,97133.47
2022-10-16T11:42:23.323Z,97135.16
2022-10-16T11:45:10.083Z,97134.31
2022-10-16T11:47:58.906Z,97128.16
2022-10-16T11:50:41.780Z,97135.41
2022-10-16T11:53:39.318Z,97132.19
2022-10-16T11:56:06.607Z,97118.97
2022-10-16T11:58:43.046Z,97132.06
2022-10-16T12:01:29.569Z,97135.00
2022-10-16T12:04:21.573Z,97136.78
2022-10-16T12:06:56.466Z,97142.31
2022-10-16T12:09:26.997Z,97132.94
2022-10-16T12:11:54.413Z,97131.09
2022-10-16T12:14:34.992Z,97135.91
2022-10-16T12:17:24.166Z,97145.19
2022-10-16T12:20:22.705Z,97155.59
2022-10-16T12:22:55.624Z,97154.84
2022-10-16T12:25:23.874Z,97160.88
2022-10-16T12:28:13.811Z,97156.81
2022-10-16T12:30:42.690Z,97165.75
2022-10-16T12:33:34.088Z,97174.31
2022-10-16T12:36:04.618Z,97180.84
2022-10-16T12:38:46.251Z,97178.59
2022-10-16T12:41:15.222Z,97183.25
2022-10-16T12:43:47.531Z,97177.63
2022-10-16T12:46:14.026Z,97181.84
2022-10-16T12:48:49.435Z,97180.75
2022-10-16T12:51:31.937Z,97170.09
2022-10-16T12:54:18.062Z,97167.16
2022-10-16T12:56:59.766Z,97166.00
2022-10-16T13:00:10.783Z,97163.75
2022-10-16T13:02:58.035Z,97153.34
2022-10-16T13:05:47.067Z,97144.59
2022-10-16T13:08:28.501Z,97156.72
2022-10-16T13:11:09.775Z,97166.19
2022-10-16T13:14:13.646Z,97159.28
2022-10-16T13:17:10.344Z,97156.91
2022-10-16T13:19:48.092Z,97164.28
2022-10-16T13:22:38.120Z,97161.19
2022-10-16T13:25:22.928Z,97160.50
2022-10-16T13:27:49.428Z,97156.16
2022-10-16T13:30:30.765Z,97157.53
2022-10-16T13:33:18.018Z,97163.25
2022-10-16T13:35:56.022Z,97161.03
2022-10-16T13:38:31.388Z,97171.84
2022-10-16T13:41:05.240Z,97181.13
2022-10-16T13:43:46.161Z,97173.53
2022-10-16T13:46:18.760Z,97175.34
2022-10-16T13:48:56.768Z,97180.13
2022-10-16T13:53:58.084Z,97179.47
2022-10-16T13:56:30.377Z,97175.44
2022-10-16T13:59:40.527Z,97173.81
2022-10-16T14:02:35.969Z,97170.06
2022-10-16T14:05:05.424Z,97178.59
2022-10-16T14:07:35.081Z,97177.91
2022-10-16T14:10:08.179Z,97175.69
2022-10-16T14:12:35.612Z,97173.34
2022-10-16T14:15:02.743Z,97177.25
2022-10-16T14:17:35.923Z,97170.09
2022-10-16T14:20:07.088Z,97168.66
2022-10-16T14:22:37.394Z,97166.34
2022-10-16T14:25:20.914Z,97163.44
2022-10-16T14:28:15.782Z,97166.75
2022-10-16T14:30:55.901Z,97164.50
2022-10-16T14:33:31.495Z,97162.66
2022-10-16T14:36:05.865Z,97166.66
2022-10-16T14:38:34.065Z,97177.50
2022-10-16T14:41:01.754Z,97170.34
2022-10-16T14:43:37.866Z,97176.50
2022-10-16T14:46:17.097Z,97179.44
2022-10-16T14:48:47.282Z,97175.09
2022-10-16T14:51:18.209Z,97170.75
2022-10-16T14:53:44.905Z,97170.75
2022-10-16T14:56:19.331Z,97169.38
2022-10-16T14:58:45.982Z,97182.16
2022-10-16T15:01:12.646Z,97182.16
2022-10-16T15:03:40.148Z,97185.97
2022-10-16T15:06:14.541Z,97190.47
2022-10-16T15:08:41.162Z,97185.88
2022-10-16T15:11:15.318Z,97188.13
2022-10-16T15:13:42.194Z,97188.91
2022-10-16T15:16:12.629Z,97187.94
2022-10-16T15:18:39.310Z,97194.97
2022-10-16T15:21:06.148Z,97198.50
2022-10-16T15:23:32.755Z,97194.19
2022-10-16T15:25:59.435Z,97196.41
2022-10-16T15:28:26.839Z,97197.41
2022-10-16T15:30:55.454Z,97200.78
2022-10-16T15:33:37.112Z,97199.53
2022-10-16T15:36:06.791Z,97194.50
2022-10-16T15:38:33.586Z,97189.28
2022-10-16T15:41:00.202Z,97191.94
2022-10-16T15:43:27.184Z,97193.78
2022-10-16T15:46:11.125Z,97191.41
2022-10-16T15:48:37.729Z,97186.50
2022-10-16T15:51:08.761Z,97186.63
2022-10-16T15:53:35.950Z,97184.41
2022-10-16T15:56:04.366Z,97175.81
2022-10-16T15:58:31.170Z,97180.91
2022-10-16T16:00:59.160Z,97185.66
2022-10-16T16:03:25.752Z,97177.13
2022-10-16T16:05:52.386Z,97177.25
2022-10-16T16:08:18.978Z,97173.34
2022-10-16T16:10:45.637Z,97175.31
2022-10-16T16:13:12.236Z,97176.56
2022-10-16T16:15:41.733Z,97169.84
2022-10-16T16:18:10.586Z,97175.31
2022-10-16T16:20:37.525Z,97178.94
2022-10-16T16:23:04.099Z,97173.75
2022-10-16T16:25:30.724Z,97174.03
2022-10-16T16:27:57.963Z,97175.56
2022-10-16T16:30:28.098Z,97178.38
2022-10-16T16:32:55.092Z,97182.16
2022-10-16T16:35:21.709Z,97176.13
2022-10-16T16:37:48.759Z,97183.41
2022-10-16T16:40:15.438Z,97185.09
2022-10-16T16:42:42.046Z,97185.22
2022-10-16T16:45:09.289Z,97188.03
2022-10-16T16:47:35.838Z,97187.50
2022-10-16T16:50:05.847Z,97190.00
2022-10-16T16:52:32.583Z,97193.66
2022-10-16T16:54:59.145Z,97201.63
2022-10-16T16:57:26.148Z,97201.06
2022-10-16T16:59:52.977Z,97203.00
2022-10-16T17:02:19.711Z,97205.53
2022-10-16T17:04:46.426Z,97209.19
2022-10-16T17:07:13.019Z,97218.97
2022-10-16T17:09:39.626Z,97213.13
2022-10-16T17:12:06.223Z,97214.06
2022-10-16T17:14:33.276Z,97213.94
2022-10-16T17:16:59.938Z,97212.66
2022-10-16T17:19:26.583Z,97216.69
2022-10-16T17:21:53.302Z,97220.03
2022-10-16T17:24:21.587Z,97220.31
2022-10-16T17:26:49.297Z,97225.91
2022-10-16T17:29:18.358Z,97227.84
2022-10-16T17:31:45.790Z,97227.28
2022-10-16T17:34:12.793Z,97235.69
2022-10-16T17:36:43.963Z,97235.94
2022-10-16T17:39:13.234Z,97229.88
2022-10-16T17:41:40.076Z,97230.25
2022-10-16T17:44:07.422Z,97225.09
2022-10-16T17:46:38.341Z,97229.69
2022-10-16T17:49:08.099Z,97229.84
2022-10-16T17:51:34.767Z,97234.56
2022-10-16T17:54:02.434Z,97236.38
2022-10-16T17:56:30.116Z,97237.50
2022-10-16T17:59:00.443Z,97237.22
2022-10-16T18:01:41.710Z,97236.00
2022-10-16T18:04:13.032Z,97240.63
2022-10-16T18:06:41.536Z,97238.78
2022-10-16T18:09:10.580Z,97238.06
2022-10-16T18:11:37.941Z,97240.63
2022-10-16T18:14:05.003Z,97245.78
2022-10-16T18:16:32.343Z,97250.00
2022-10-16T18:18:59.513Z,97258.66
2022-10-16T18:21:27.847Z,97258.94
2022-10-16T18:23:55.328Z,97263.56
2022-10-16T18:26:23.222Z,97259.09
2022-10-16T18:28:54.301Z,97259.31
2022-10-16T18:31:23.009Z,97256.94
2022-10-16T18:33:51.281Z,97264.91
2022-10-16T18:36:23.944Z,97265.75
2022-10-16T18:38:50.618Z,97260.13
2022-10-16T18:41:17.335Z,97259.56
2022-10-16T18:43:44.283Z,97271.16
2022-10-16T18:46:19.280Z,97270.19
2022-10-16T18:48:50.039Z,97267.53
2022-10-16T18:51:37.955Z,97269.06
2022-10-16T18:54:09.223Z,97266.56
2022-10-16T18:56:36.592Z,97276.06
2022-10-16T18:59:06.204Z,97273.41
2022-10-16T19:01:35.164Z,97271.31
2022-10-16T19:04:07.647Z,97271.44
2022-10-16T19:06:36.819Z,97275.19
2022-10-16T19:09:04.514Z,97280.50
2022-10-16T19:11:32.051Z,97281.34
2022-10-16T19:13:59.127Z,97284.97
2022-10-16T19:16:31.835Z,97293.91
2022-10-16T19:19:01.181Z,97303.72
2022-10-16T19:21:30.227Z,97289.31
2022-10-16T19:23:59.198Z,97302.09
2022-10-16T19:26:28.183Z,97304.38
2022-10-16T19:28:58.285Z,97299.34
2022-10-16T19:31:26.856Z,97300.66
2022-10-16T19:33:55.508Z,97302.19
2022-10-16T19:36:23.766Z,97293.97
2022-10-16T19:38:58.284Z,97295.38
2022-10-16T19:41:27.678Z,97296.22
2022-10-16T19:43:55.209Z,97292.47
2022-10-16T19:46:25.725Z,97307.06
2022-10-16T19:49:00.980Z,97303.41
2022-10-16T19:51:28.954Z,97305.38
2022-10-16T19:53:58.082Z,97310.41
2022-10-16T19:56:27.974Z,97311.53
2022-10-16T19:58:56.407Z,97305.94
2022-10-16T20:01:25.017Z,97308.59
2022-10-16T20:03:52.195Z,97303.41
2022-10-16T20:06:20.173Z,97302.31
2022-10-16T20:08:49.046Z,97292.50
2022-10-16T20:11:19.122Z,97303.03
2022-10-16T20:13:46.328Z,97306.53
2022-10-16T20:16:14.332Z,97302.31
2022-10-16T20:18:41.544Z,97309.59
2022-10-16T20:21:19.984Z,97308.19
2022-10-16T20:23:48.938Z,97306.75
2022-10-16T20:26:17.372Z,97306.00
2022-10-16T20:28:44.851Z,97309.16
2022-10-16T20:31:18.340Z,97308.19
2022-10-16T20:33:45.966Z,97309.25
2022-10-16T20:36:14.432Z,97307.47
2022-10-16T20:38:42.184Z,97317.63
2022-10-16T20:41:10.148Z,97319.81
2022-10-16T20:43:41.318Z,97315.06
2022-10-16T20:46:11.151Z,97310.81
2022-10-16T20:48:41.415Z,97314.13
2022-10-16T20:51:29.043Z,97307.72
2022-10-16T20:54:00.702Z,97322.00
2022-10-16T20:56:30.511Z,97315.50
2022-10-16T20:58:58.386Z,97322.38
2022-10-16T21:01:27.418Z,97318.88
2022-10-16T21:03:59.592Z,97312.72
2022-10-16T21:06:26.778Z,97324.31
2022-10-16T21:08:54.245Z,97315.75
2022-10-16T21:11:24.026Z,97320.97
2022-10-16T21:13:55.509Z,97320.00
2022-10-16T21:16:22.414Z,97319.72
2022-10-16T21:18:49.459Z,97315.09
2022-10-16T21:21:22.248Z,97313.56
2022-10-16T21:23:50.587Z,97324.19
2022-10-16T21:26:18.698Z,97318.31
2022-10-16T21:28:45.964Z,97320.69
2022-10-16T21:31:22.796Z,97318.38
2022-10-16T21:33:50.590Z,97315.00
2022-10-16T21:36:20.051Z,97312.19
2022-10-16T21:38:47.609Z,97313.47
2022-10-16T21:41:23.711Z,97312.81
2022-10-16T21:43:51.242Z,97308.81
2022-10-16T21:46:20.856Z,97313.03
2022-10-16T21:48:47.995Z,97311.22
2022-10-16T21:51:15.530Z,97316.78
2022-10-16T21:53:42.145Z,97318.84
2022-10-16T21:56:14.344Z,97304.84
2022-10-16T21:58:40.941Z,97322.38
2022-10-16T22:01:09.638Z,97318.84
2022-10-16T22:03:36.307Z,97314.81
2022-10-16T22:06:06.705Z,97323.66
2022-10-16T22:08:34.894Z,97318.81
2022-10-16T22:11:22.994Z,97316.72
2022-10-16T22:13:54.326Z,97318.72
2022-10-16T22:16:25.630Z,97319.97
2022-10-16T22:18:53.572Z,97310.28
2022-10-16T22:21:20.275Z,97316.06
2022-10-16T22:23:46.913Z,97322.00
2022-10-16T22:26:13.481Z,97325.50
2022-10-16T22:28:41.023Z,97322.97
2022-10-16T22:31:10.664Z,97325.63
2022-10-16T22:33:37.770Z,97323.38
2022-10-16T22:36:06.587Z,97330.50
2022-10-16T22:38:35.311Z,97329.06
2022-10-16T22:41:06.763Z,97334.16
2022-10-16T22:43:42.723Z,97340.56
2022-10-16T22:46:11.595Z,97331.03
2022-10-16T22:48:38.269Z,97332.16
2022-10-16T22:51:05.965Z,97342.13
2022-10-16T22:53:33.262Z,97337.91
2022-10-16T22:56:00.047Z,97340.50
2022-10-16T22:58:26.815Z,97341.50
2022-10-16T23:00:53.654Z,97347.84
2022-10-16T23:03:20.413Z,97352.31
2022-10-16T23:05:47.061Z,97345.50
2022-10-16T23:08:15.144Z,97344.34
2022-10-16T23:10:43.498Z,97348.13
2022-10-16T23:13:10.137Z,97351.16
2022-10-16T23:15:41.294Z,97348.78
2022-10-16T23:18:08.232Z,97352.28
2022-10-16T23:20:35.630Z,97354.56
2022-10-16T23:23:02.163Z,97350.78
2022-10-16T23:25:28.819Z,97356.66
2022-10-16T23:27:55.994Z,97349.94
2022-10-16T23:30:22.606Z,97356.78
2022-10-16T23:32:49.170Z,97362.16
2022-10-16T23:35:15.852Z,97366.06
2022-10-16T23:37:42.402Z,97364.31
2022-10-16T23:40:09.323Z,97361.91
2022-10-16T23:42:35.902Z,97358.81
2022-10-16T23:45:02.520Z,97361.47
2022-10-16T23:47:29.390Z,97361.03
2022-10-16T23:49:56.206Z,97367.63
2022-10-16T23:52:22.766Z,97368.28
2022-10-16T23:54:49.401Z,97364.63
2022-10-16T23:57:16.092Z,97360.16
2022-10-16T23:59:42.659Z,97369.25
